Time,TemperatureF,DewpointF,PressureIn,WindDirection,WindDirectionDegrees,WindSpeedMPH,WindSpeedGustMPH,Humidity,HourlyPrecipIn,Conditions,Clouds,dailyrainin,SoftwareType,DateUTC
2013-06-21 00:00:00,31.8,15.7,-100.00,East,89,0.0,1.0,51,0.00,n/a,n/a,-99.99,Henriksen +1-Wire,2013-06-21 04:00:00,
2013-06-21 00:10:00,31.8,15.7,-100.00,East,89,0.0,0.0,51,0.00,n/a,n/a,-99.99,Henriksen +1-Wire,2013-06-21 04:10:00,
2013-06-21 00:20:00,31.8,15.7,-100.00,East,89,0.0,0.0,51,0.00,n/a,n/a,-99.99,Henriksen +1-Wire,2013-06-21 04:20:00,
2013-06-21 00:30:00,31.8,15.7,-100.00,East,89,0.0,0.0,51,0.00,n/a,n/a,-99.99,Henriksen +1-Wire,2013-06-21 04:30:00,
2013-06-21 00:40:00,31.8,15.7,-100.00,East,89,0.0,0.0,51,0.00,n/a,n/a,-99.99,Henriksen +1-Wire,2013-06-21 04:40:00,
2013-06-21 00:50:00,31.8,15.7,-100.00,East,89,0.0,0.0,51,0.00,n/a,n/a,-99.99,Henriksen +1-Wire,2013-06-21 04:50:00,
2013-06-21 01:00:00,31.8,15.7,-100.00,East,89,0.0,0.0,51,0.00,n/a,n/a,-99.99,Henriksen +1-Wire,2013-06-21 05:00:00,
2013-06-21 01:10:00,31.8,15.7,-100.00,East,89,0.0,0.0,51,0.00,n/a,n/a,-99.99,Henriksen +1-Wire,2013-06-21 05:10:00,
2013-06-21 01:20:00,31.8,15.7,-100.00,East,89,0.0,0.0,51,0.00,n/a,n/a,-99.99,Henriksen +1-Wire,2013-06-21 05:20:00,
2013-06-21 01:30:00,31.8,15.7,-100.00,East,89,0.0,0.0,51,0.00,n/a,n/a,-99.99,Henriksen +1-Wire,2013-06-21 05:30:00,
2013-06-21 01:40:00,31.8,15.7,-100.00,East,89,0.0,0.0,51,0.00,n/a,n/a,-99.99,Henriksen +1-Wire,2013-06-21 05:40:00,
2013-06-21 01:50:00,31.8,15.7,-100.00,East,89,0.0,0.0,51,0.00,n/a,n/a,-99.99,Henriksen +1-Wire,2013-06-21 05:50:00,
2013-06-21 02:00:00,31.8,15.7,-100.00,East,89,0.0,0.0,51,0.00,n/a,n/a,-99.99,Henriksen +1-Wire,2013-06-21 06:00:00,
2013-06-21 02:10:00,31.8,15.7,-100.00,East,89,0.0,0.0,51,0.00,n/a,n/a,-99.99,Henriksen +1-Wire,2013-06-21 06:10:00,
2013-06-21 02:20:00,31.8,15.7,-100.00,East,89,0.0,0.0,51,0.00,n/a,n/a,-99.99,Henriksen +1-Wire,2013-06-21 06:20:00,
2013-06-21 02:30:00,31.8,15.7,-100.00,East,89,0.0,0.0,51,0.00,n/a,n/a,-99.99,Henriksen +1-Wire,2013-06-21 06:30:00,
2013-06-21 02:40:00,31.8,15.7,-100.00,East,89,0.0,0.0,51,0.00,n/a,n/a,-99.99,Henriksen +1-Wire,2013-06-21 06:40:00,
2013-06-21 02:50:00,31.8,15.7,-100.00,East,89,0.0,0.0,51,0.00,n/a,n/a,-99.99,Henriksen +1-Wire,2013-06-21 06:50:00,
2013-06-21 03:00:00,31.8,15.7,-100.00,East,89,0.0,0.0,51,0.00,n/a,n/a,-99.99,Henriksen +1-Wire,2013-06-21 07:00:00,
2013-06-21 03:10:00,31.8,15.7,-100.00,East,89,0.0,0.0,51,0.00,n/a,n/a,-99.99,Henriksen +1-Wire,2013-06-21 07:10:00,
2013-06-21 03:20:00,31.8,15.7,-100.00,ENE,75,0.0,0.0,51,0.00,n/a,n/a,-99.99,Henriksen +1-Wire,2013-06-21 07:20:00,
2013-06-21 03:30:00,31.8,15.7,-100.00,North,2,0.0,1.0,51,0.00,n/a,n/a,-99.99,Henriksen +1-Wire,2013-06-21 07:30:00,
2013-06-21 03:40:00,31.8,15.7,-100.00,NNW,337,0.0,0.0,51,0.00,n/a,n/a,-99.99,Henriksen +1-Wire,2013-06-21 07:40:00,
2013-06-21 03:50:00,31.8,15.7,-100.00,NNW,327,0.0,1.0,51,0.00,n/a,n/a,-99.99,Henriksen +1-Wire,2013-06-21 07:50:00,
2013-06-21 04:00:00,31.8,15.7,-100.00,NW,312,0.0,1.0,51,0.00,n/a,n/a,-99.99,Henriksen +1-Wire,2013-06-21 08:00:00,
2013-06-21 04:10:00,31.8,15.7,-100.00,NW,314,0.0,1.0,51,0.00,n/a,n/a,-99.99,Henriksen +1-Wire,2013-06-21 08:10:00,
2013-06-21 04:20:00,31.8,15.7,-100.00,NW,314,0.0,0.0,51,0.00,n/a,n/a,-99.99,Henriksen +1-Wire,2013-06-21 08:20:00,
2013-06-21 04:30:00,31.8,15.7,-100.00,NW,314,0.0,0.0,51,0.00,n/a,n/a,-99.99,Henriksen +1-Wire,2013-06-21 08:30:00,
2013-06-21 04:40:00,31.8,15.7,-100.00,WNW,282,0.0,1.0,51,0.00,n/a,n/a,-99.99,Henriksen +1-Wire,2013-06-21 08:40:00,
2013-06-21 04:50:00,31.8,15.7,-100.00,West,277,0.0,0.0,51,0.00,n/a,n/a,-99.99,Henriksen +1-Wire,2013-06-21 08:50:00,
2013-06-21 05:00:00,31.8,15.7,-100.00,NW,314,0.0,0.0,51,0.00,n/a,n/a,-99.99,Henriksen +1-Wire,2013-06-21 09:00:00,
2013-06-21 05:10:00,31.8,15.7,-100.00,NW,314,0.0,0.0,51,0.00,n/a,n/a,-99.99,Henriksen +1-Wire,2013-06-21 09:10:00,
2013-06-21 05:20:00,31.8,15.7,-100.00,NW,314,0.0,0.0,51,0.00,n/a,n/a,-99.99,Henriksen +1-Wire,2013-06-21 09:20:00,
2013-06-21 05:30:00,31.8,15.7,-100.00,NW,310,0.0,1.0,51,0.00,n/a,n/a,-99.99,Henriksen +1-Wire,2013-06-21 09:30:00,
2013-06-21 05:40:00,31.8,15.7,-100.00,NW,304,0.0,1.0,51,0.00,n/a,n/a,-99.99,Henriksen +1-Wire,2013-06-21 09:40:00,
2013-06-21 05:50:00,31.8,15.7,-100.00,North,1,0.0,1.0,51,0.00,n/a,n/a,-99.99,Henriksen +1-Wire,2013-06-21 09:50:00,
2013-06-21 06:00:00,31.8,15.7,-100.00,NNW,335,0.0,0.0,51,0.00,n/a,n/a,-99.99,Henriksen +1-Wire,2013-06-21 10:00:00,
2013-06-21 06:10:00,31.8,15.7,-100.00,NNW,337,0.0,1.0,51,0.00,n/a,n/a,-99.99,Henriksen +1-Wire,2013-06-21 10:10:00,
2013-06-21 06:20:00,31.8,15.7,-100.00,NNW,333,0.0,1.0,51,0.00,n/a,n/a,-99.99,Henriksen +1-Wire,2013-06-21 10:20:00,
2013-06-21 06:30:00,31.8,15.7,-100.00,NNW,330,0.0,0.0,51,0.00,n/a,n/a,-99.99,Henriksen +1-Wire,2013-06-21 10:30:00,
2013-06-21 06:40:00,31.8,15.7,-100.00,NNW,337,0.0,0.0,51,0.00,n/a,n/a,-99.99,Henriksen +1-Wire,2013-06-21 10:40:00,
2013-06-21 06:50:00,31.8,15.7,-100.00,NNW,337,0.0,1.0,51,0.00,n/a,n/a,-99.99,Henriksen +1-Wire,2013-06-21 10:50:00,
2013-06-21 07:00:00,31.8,15.7,-100.00,NW,322,0.0,1.0,51,0.00,n/a,n/a,-99.99,Henriksen +1-Wire,2013-06-21 11:00:00,
2013-06-21 07:10:00,31.8,15.7,-100.00,WNW,292,0.1,4.2,51,0.00,n/a,n/a,-99.99,Henriksen +1-Wire,2013-06-21 11:10:00,
2013-06-21 07:20:00,31.8,15.7,-100.00,WNW,292,0.0,1.0,51,0.00,n/a,n/a,-99.99,Henriksen +1-Wire,2013-06-21 11:20:00,
2013-06-21 07:30:00,31.8,15.7,-100.00,WNW,292,0.0,1.0,51,0.00,n/a,n/a,-99.99,Henriksen +1-Wire,2013-06-21 11:30:00,
2013-06-21 07:40:00,31.8,15.7,-100.00,WNW,293,0.0,4.1,51,0.00,n/a,n/a,-99.99,Henriksen +1-Wire,2013-06-21 11:40:00,
2013-06-21 07:50:00,31.8,15.7,-100.00,WNW,291,0.0,4.2,51,0.00,n/a,n/a,-99.99,Henriksen +1-Wire,2013-06-21 11:50:00,
2013-06-21 08:00:00,31.8,15.7,-100.00,WNW,295,0.5,5.1,51,0.00,n/a,n/a,-99.99,Henriksen +1-Wire,2013-06-21 12:00:00,
2013-06-21 08:10:00,31.8,15.7,-100.00,WNW,290,0.0,2.1,51,0.00,n/a,n/a,-99.99,Henriksen +1-Wire,2013-06-21 12:10:00,
2013-06-21 08:20:00,31.8,15.7,-100.00,WNW,293,0.5,6.2,51,0.00,n/a,n/a,-99.99,Henriksen +1-Wire,2013-06-21 12:20:00,
2013-06-21 08:30:00,31.8,15.7,-100.00,WNW,290,0.1,3.1,51,0.00,n/a,n/a,-99.99,Henriksen +1-Wire,2013-06-21 12:30:00,
2013-06-21 08:40:00,31.8,15.7,-100.00,NW,323,0.2,3.1,51,0.00,n/a,n/a,-99.99,Henriksen +1-Wire,2013-06-21 12:40:00,
2013-06-21 08:50:00,31.8,15.7,-100.00,WNW,292,0.2,2.1,51,0.00,n/a,n/a,-99.99,Henriksen +1-Wire,2013-06-21 12:50:00,
2013-06-21 09:00:00,31.8,15.7,-100.00,NW,304,0.7,6.2,51,0.00,n/a,n/a,-99.99,Henriksen +1-Wire,2013-06-21 13:00:00,
2013-06-21 09:10:00,31.8,15.7,-100.00,West,259,0.5,2.1,51,0.00,n/a,n/a,-99.99,Henriksen +1-Wire,2013-06-21 13:10:00,
2013-06-21 09:20:00,31.8,15.7,-100.00,West,268,0.0,1.0,51,0.00,n/a,n/a,-99.99,Henriksen +1-Wire,2013-06-21 13:20:00,
2013-06-21 09:30:00,31.8,15.7,-100.00,WNW,286,0.0,4.1,51,0.00,n/a,n/a,-99.99,Henriksen +1-Wire,2013-06-21 13:30:00,
2013-06-21 09:40:00,31.8,15.7,-100.00,WNW,292,0.0,0.0,51,0.00,n/a,n/a,-99.99,Henriksen +1-Wire,2013-06-21 13:40:00,
2013-06-21 09:50:00,31.8,15.7,-100.00,WNW,290,0.0,2.1,51,0.00,n/a,n/a,-99.99,Henriksen +1-Wire,2013-06-21 13:50:00,
2013-06-21 10:00:00,31.8,15.7,-100.00,WSW,248,0.0,4.2,51,0.00,n/a,n/a,-99.99,Henriksen +1-Wire,2013-06-21 14:00:00,
2013-06-21 10:10:00,31.8,15.7,-100.00,SW,229,0.1,2.1,51,0.00,n/a,n/a,-99.99,Henriksen +1-Wire,2013-06-21 14:10:00,
2013-06-21 10:20:00,31.8,15.7,-100.00,SE,146,0.0,1.0,51,0.00,n/a,n/a,-99.99,Henriksen +1-Wire,2013-06-21 14:20:00,
2013-06-21 10:30:00,31.8,15.7,-100.00,WSW,242,0.0,4.2,51,0.00,n/a,n/a,-99.99,Henriksen +1-Wire,2013-06-21 14:30:00,
2013-06-21 10:40:00,31.8,15.7,-100.00,SW,224,0.0,1.0,51,0.00,n/a,n/a,-99.99,Henriksen +1-Wire,2013-06-21 14:40:00,
2013-06-21 10:50:00,31.8,15.7,-100.00,SW,224,0.0,1.0,51,0.00,n/a,n/a,-99.99,Henriksen +1-Wire,2013-06-21 14:50:00,
2013-06-21 11:00:00,31.8,15.7,-100.00,SW,215,0.0,1.0,51,0.00,n/a,n/a,-99.99,Henriksen +1-Wire,2013-06-21 15:00:00,
2013-06-21 11:20:00,31.8,15.7,-100.00,SSW,203,0.0,1.0,51,0.00,n/a,n/a,-99.99,Henriksen +1-Wire,2013-06-21 15:20:00,
2013-06-21 11:30:00,31.8,15.7,-100.00,SW,224,0.0,0.0,51,0.00,n/a,n/a,-99.99,Henriksen +1-Wire,2013-06-21 15:30:00,
2013-06-21 11:40:00,31.8,15.7,-100.00,SW,220,0.0,1.0,51,0.00,n/a,n/a,-99.99,Henriksen +1-Wire,2013-06-21 15:40:00,
2013-06-21 13:50:00,31.8,15.7,-100.00,WNW,283,0.0,4.2,51,0.00,n/a,n/a,-99.99,Henriksen +1-Wire,2013-06-21 17:50:00,
2013-06-21 14:20:00,31.8,15.7,-100.00,WSW,250,0.0,1.0,51,0.00,n/a,n/a,-99.99,Henriksen +1-Wire,2013-06-21 18:20:00,
2013-06-21 14:30:00,31.8,15.7,-100.00,WSW,258,0.6,4.2,51,0.00,n/a,n/a,-99.99,Henriksen +1-Wire,2013-06-21 18:30:00,
2013-06-21 14:40:00,31.8,15.7,-100.00,WNW,290,0.7,3.1,51,0.00,n/a,n/a,-99.99,Henriksen +1-Wire,2013-06-21 18:40:00,
2013-06-21 14:50:00,31.8,15.7,-100.00,WSW,249,0.3,2.1,51,0.00,n/a,n/a,-99.99,Henriksen +1-Wire,2013-06-21 18:50:00,
2013-06-21 15:00:00,31.8,15.7,-100.00,West,263,0.1,4.2,51,0.00,n/a,n/a,-99.99,Henriksen +1-Wire,2013-06-21 19:00:00,
2013-06-21 15:10:00,31.8,15.7,-100.00,West,259,0.0,1.0,51,0.00,n/a,n/a,-99.99,Henriksen +1-Wire,2013-06-21 19:10:00,
2013-06-21 15:20:00,31.8,15.7,-100.00,SSE,163,0.0,1.0,51,0.00,n/a,n/a,-99.99,Henriksen +1-Wire,2013-06-21 19:20:00,
2013-06-21 15:30:00,31.8,15.7,-100.00,SW,231,0.1,2.1,51,0.00,n/a,n/a,-99.99,Henriksen +1-Wire,2013-06-21 19:30:00,
2013-06-21 15:40:00,31.8,15.7,-100.00,WSW,244,0.0,4.2,51,0.00,n/a,n/a,-99.99,Henriksen +1-Wire,2013-06-21 19:40:00,
2013-06-21 15:50:00,31.8,15.7,-100.00,WSW,247,0.1,1.0,51,0.00,n/a,n/a,-99.99,Henriksen +1-Wire,2013-06-21 19:50:00,
2013-06-21 16:00:00,31.8,15.7,-100.00,ESE,123,0.0,1.0,51,0.00,n/a,n/a,-99.99,Henriksen +1-Wire,2013-06-21 20:00:00,
2013-06-21 16:10:00,31.8,15.7,-100.00,WNW,291,0.0,3.1,51,0.00,n/a,n/a,-99.99,Henriksen +1-Wire,2013-06-21 20:10:00,
2013-06-21 16:20:00,31.8,15.7,-100.00,West,277,0.0,5.1,51,0.00,n/a,n/a,-99.99,Henriksen +1-Wire,2013-06-21 20:20:00,
2013-06-21 16:30:00,31.8,15.7,-100.00,West,267,0.0,1.0,51,0.00,n/a,n/a,-99.99,Henriksen +1-Wire,2013-06-21 20:30:00,
2013-06-21 16:40:00,31.8,15.7,-100.00,West,268,0.0,1.0,51,0.00,n/a,n/a,-99.99,Henriksen +1-Wire,2013-06-21 20:40:00,
2013-06-21 16:50:00,31.8,15.7,-100.00,West,265,0.1,1.0,51,0.00,n/a,n/a,-99.99,Henriksen +1-Wire,2013-06-21 20:50:00,
2013-06-21 17:00:00,31.8,15.7,-100.00,WNW,284,0.1,1.0,51,0.00,n/a,n/a,-99.99,Henriksen +1-Wire,2013-06-21 21:00:00,
2013-06-21 17:10:00,31.8,15.7,-100.00,WNW,290,0.0,1.0,51,0.00,n/a,n/a,-99.99,Henriksen +1-Wire,2013-06-21 21:10:00,
2013-06-21 17:20:00,31.8,15.7,-100.00,WNW,291,0.0,1.1,51,0.00,n/a,n/a,-99.99,Henriksen +1-Wire,2013-06-21 21:20:00,
2013-06-21 17:30:00,31.8,15.7,-100.00,WNW,300,0.0,1.0,51,0.00,n/a,n/a,-99.99,Henriksen +1-Wire,2013-06-21 21:30:00,
2013-06-21 17:40:00,31.8,15.7,-100.00,NW,313,0.0,1.0,51,0.00,n/a,n/a,-99.99,Henriksen +1-Wire,2013-06-21 21:40:00,
2013-06-21 19:50:00,31.8,15.7,-100.00,WNW,292,0.0,0.0,51,0.00,n/a,n/a,-99.99,Henriksen +1-Wire,2013-06-21 23:50:00,
2013-06-21 20:00:00,31.8,15.7,-100.00,WNW,292,0.0,0.0,51,0.00,n/a,n/a,-99.99,Henriksen +1-Wire,2013-06-22 00:00:00,
2013-06-21 20:10:00,31.8,15.7,-100.00,WNW,292,0.0,0.0,51,0.00,n/a,n/a,-99.99,Henriksen +1-Wire,2013-06-22 00:10:00,
2013-06-21 20:20:00,31.8,15.7,-100.00,WNW,292,0.0,0.0,51,0.00,n/a,n/a,-99.99,Henriksen +1-Wire,2013-06-22 00:20:00,
2013-06-21 22:30:00,31.8,15.7,-100.00,SSW,202,0.0,0.0,51,0.00,n/a,n/a,-99.99,Henriksen +1-Wire,2013-06-22 02:30:00,
2013-06-21 22:40:00,31.8,15.7,-100.00,SSW,202,0.0,0.0,51,0.00,n/a,n/a,-99.99,Henriksen +1-Wire,2013-06-22 02:40:00,
2013-06-21 22:50:00,31.8,15.7,-100.00,SSW,202,0.0,0.0,51,0.00,n/a,n/a,-99.99,Henriksen +1-Wire,2013-06-22 02:50:00,
2013-06-21 23:00:00,31.8,15.7,-100.00,SSW,202,0.0,0.0,51,0.00,n/a,n/a,-99.99,Henriksen +1-Wire,2013-06-22 03:00:00,
2013-06-21 23:10:00,31.8,15.7,-100.00,SSW,202,0.0,0.0,51,0.00,n/a,n/a,-99.99,Henriksen +1-Wire,2013-06-22 03:10:00,
2013-06-21 23:20:00,31.8,15.7,-100.00,SSW,202,0.0,0.0,51,0.00,n/a,n/a,-99.99,Henriksen +1-Wire,2013-06-22 03:20:00,
2013-06-21 23:30:00,31.8,15.7,-100.00,SSW,202,0.0,0.0,51,0.00,n/a,n/a,-99.99,Henriksen +1-Wire,2013-06-22 03:30:00,
2013-06-21 23:40:00,31.8,15.7,-100.00,SSW,202,0.0,0.0,51,0.00,n/a,n/a,-99.99,Henriksen +1-Wire,2013-06-22 03:40:00,
2013-06-21 23:50:00,31.8,15.7,-100.00,SSW,202,0.0,0.0,51,0.00,n/a,n/a,-99.99,Henriksen +1-Wire,2013-06-22 03:50:00,